createdAt,value
2023-04-18T00:00:05.458Z,77.65
2023-04-18T00:00:56.262Z,77.75
2023-04-18T00:01:47.067Z,77.75
2023-04-18T00:02:38.014Z,77.65
2023-04-18T00:03:29.031Z,77.65
2023-04-18T00:04:20.483Z,77.75
2023-04-18T00:05:11.038Z,77.85
2023-04-18T00:06:01.776Z,77.85
2023-04-18T00:06:52.977Z,77.85
2023-04-18T00:07:44.033Z,77.85
2023-04-18T00:08:35.107Z,77.89
2023-04-18T00:09:26.253Z,77.85
2023-04-18T00:10:17.275Z,77.99
2023-04-18T00:11:08.031Z,77.95
2023-04-18T00:11:58.904Z,78.06
2023-04-18T00:12:49.850Z,78.16
2023-04-18T00:13:40.889Z,78.16
2023-04-18T00:14:31.926Z,78.06
2023-04-18T00:15:23.006Z,77.95
2023-04-18T00:16:14.375Z,77.89
2023-04-18T00:17:05.539Z,77.89
2023-04-18T00:17:56.722Z,77.89
2023-04-18T00:18:47.903Z,77.89
2023-04-18T00:19:38.978Z,77.99
2023-04-18T00:20:30.234Z,77.99
2023-04-18T00:21:21.323Z,78.09
2023-04-18T00:22:12.226Z,78.09
2023-04-18T00:23:03.219Z,77.99
2023-04-18T00:23:53.977Z,77.99
2023-04-18T00:24:45.180Z,77.99
2023-04-18T00:25:36.381Z,78.09
2023-04-18T00:26:27.266Z,78.09
2023-04-18T00:27:18.261Z,78.09
2023-04-18T00:28:09.510Z,77.99
2023-04-18T00:29:00.675Z,77.99
2023-04-18T00:29:51.486Z,77.99
2023-04-18T00:30:42.303Z,77.99
2023-04-18T00:31:33.057Z,77.99
2023-04-18T00:32:23.890Z,78.09
2023-04-18T00:33:14.641Z,77.99
2023-04-18T00:34:05.408Z,77.89
2023-04-18T00:34:56.185Z,77.78
2023-04-18T00:35:46.976Z,77.68
2023-04-18T00:36:37.765Z,77.68
2023-04-18T00:37:28.553Z,77.68
2023-04-18T00:38:19.344Z,77.58
2023-04-18T00:39:10.108Z,77.78
2023-04-18T00:40:00.903Z,77.68
2023-04-18T00:40:51.683Z,77.58
2023-04-18T00:41:42.458Z,77.68
2023-04-18T00:42:33.224Z,77.68
2023-04-18T00:43:24.020Z,77.82
2023-04-18T00:44:15.069Z,77.92
2023-04-18T00:45:05.884Z,78.03
2023-04-18T00:45:56.708Z,78.03
2023-04-18T00:46:47.470Z,78.03
2023-04-18T00:47:38.275Z,78.03
2023-04-18T00:48:29.042Z,78.03
2023-04-18T00:49:19.828Z,77.92
2023-04-18T00:50:10.627Z,77.92
2023-04-18T00:51:01.584Z,78.03
2023-04-18T00:51:52.329Z,78.13
2023-04-18T00:52:43.119Z,78.13
2023-04-18T00:53:33.886Z,78.23
2023-04-18T00:54:24.674Z,78.23
2023-04-18T00:55:15.438Z,78.33
2023-04-18T00:56:06.214Z,78.44
2023-04-18T00:56:57.012Z,78.54
2023-04-18T00:57:47.799Z,78.68
2023-04-18T00:58:39.093Z,78.68
2023-04-18T00:59:30.294Z,78.68
2023-04-18T01:00:21.635Z,78.68
2023-04-18T01:01:12.886Z,78.78
2023-04-18T01:02:04.224Z,78.78
2023-04-18T01:02:54.941Z,78.89
2023-04-18T01:03:46.209Z,78.89
2023-04-18T01:04:37.125Z,78.99
2023-04-18T01:05:27.782Z,78.99
2023-04-18T01:06:18.446Z,78.99
2023-04-18T01:07:09.215Z,79.09
2023-04-18T01:08:00.502Z,79.09
2023-04-18T01:08:51.727Z,79.09
2023-04-18T01:09:42.876Z,79.09
2023-04-18T01:10:33.844Z,79.19
2023-04-18T01:11:24.767Z,79.23
2023-04-18T01:12:15.525Z,79.23
2023-04-18T01:13:08.748Z,79.23
2023-04-18T01:13:57.718Z,79.23
2023-04-18T01:14:47.755Z,79.33
2023-04-18T01:15:38.981Z,79.33
2023-04-18T01:16:29.658Z,79.33
2023-04-18T01:17:20.855Z,79.33
2023-04-18T01:18:14.733Z,79.44
2023-04-18T01:19:03.078Z,79.54
2023-04-18T01:19:53.755Z,79.64
2023-04-18T01:20:44.523Z,79.64
2023-04-18T01:21:35.866Z,79.75
2023-04-18T01:22:26.637Z,79.75
2023-04-18T01:23:17.416Z,79.75
2023-04-18T01:24:08.216Z,79.75
2023-04-18T01:25:00.746Z,79.79
2023-04-18T01:25:49.643Z,79.88
2023-04-18T01:26:40.369Z,79.88
2023-04-18T01:27:31.108Z,79.99
2023-04-18T01:28:21.838Z,79.99
2023-04-18T01:29:13.072Z,79.99
2023-04-18T01:30:03.792Z,79.99
2023-04-18T01:30:54.549Z,79.99
2023-04-18T01:31:45.288Z,79.99
2023-04-18T01:32:36.018Z,80.09
2023-04-18T01:33:26.773Z,80.09
2023-04-18T01:34:17.570Z,80.09
2023-04-18T01:35:08.229Z,79.99
2023-04-18T01:35:59.002Z,80.09
2023-04-18T01:36:49.728Z,80.19
2023-04-18T01:37:40.511Z,80.30
2023-04-18T01:38:31.239Z,80.30
2023-04-18T01:39:22.551Z,80.19
2023-04-18T01:40:13.306Z,80.19
2023-04-18T01:41:04.022Z,80.30
2023-04-18T01:41:54.759Z,80.30
2023-04-18T01:42:45.549Z,80.40
2023-04-18T01:43:36.341Z,80.44
2023-04-18T01:44:27.129Z,80.54
2023-04-18T01:45:17.918Z,80.65
2023-04-18T01:46:08.743Z,80.75
2023-04-18T01:46:59.593Z,80.75
2023-04-18T01:47:50.403Z,80.75
2023-04-18T01:48:41.183Z,80.85
2023-04-18T01:49:32.040Z,80.75
2023-04-18T01:50:22.761Z,80.75
2023-04-18T01:51:13.551Z,80.75
2023-04-18T01:52:04.354Z,80.85
2023-04-18T01:52:55.126Z,80.75
2023-04-18T01:53:45.899Z,80.75
2023-04-18T01:54:36.701Z,80.95
2023-04-18T01:55:27.477Z,81.05
2023-04-18T01:56:18.257Z,81.02
2023-04-18T01:57:09.085Z,80.91
2023-04-18T01:57:59.822Z,80.91
2023-04-18T01:58:50.604Z,80.71
2023-04-18T01:59:41.413Z,80.61
2023-04-18T02:00:32.241Z,80.61
2023-04-18T02:01:23.083Z,80.51
2023-04-18T02:02:13.937Z,80.40
2023-04-18T02:03:04.866Z,80.30
2023-04-18T02:03:55.907Z,80.30
2023-04-18T02:04:47.004Z,80.30
2023-04-18T02:05:37.686Z,80.30
2023-04-18T02:06:28.576Z,80.30
2023-04-18T02:07:19.320Z,80.19
2023-04-18T02:08:10.117Z,80.33
2023-04-18T02:09:00.897Z,80.33
2023-04-18T02:09:51.751Z,80.33
2023-04-18T02:10:42.473Z,80.33
2023-04-18T02:11:33.322Z,80.33
2023-04-18T02:12:24.039Z,80.33
2023-04-18T02:13:14.815Z,80.33
2023-04-18T02:14:05.593Z,80.23
2023-04-18T02:14:56.436Z,80.23
2023-04-18T02:15:47.184Z,80.33
2023-04-18T02:16:37.990Z,80.33
2023-04-18T02:17:28.767Z,80.44
2023-04-18T02:18:19.519Z,80.44
2023-04-18T02:19:10.290Z,80.54
2023-04-18T02:20:01.115Z,80.65
2023-04-18T02:20:51.897Z,80.75
2023-04-18T02:21:42.658Z,80.85
2023-04-18T02:22:33.437Z,80.85
2023-04-18T02:23:24.229Z,80.75
2023-04-18T02:24:15.274Z,80.75
2023-04-18T02:25:06.152Z,80.75
2023-04-18T02:25:56.937Z,80.75
2023-04-18T02:26:47.717Z,80.85
2023-04-18T02:27:38.507Z,80.85
2023-04-18T02:28:29.289Z,81.05
2023-04-18T02:29:20.066Z,81.05
2023-04-18T02:30:10.852Z,80.95
2023-04-18T02:31:01.683Z,80.95
2023-04-18T02:31:52.484Z,80.95
2023-04-18T02:32:43.280Z,80.95
2023-04-18T02:33:34.005Z,80.95
2023-04-18T02:34:24.964Z,80.95
2023-04-18T02:35:15.807Z,80.85
2023-04-18T02:36:06.526Z,80.85
2023-04-18T02:36:57.312Z,80.85
2023-04-18T02:37:48.078Z,80.89
2023-04-18T02:38:38.850Z,80.89
2023-04-18T02:39:29.634Z,80.89
2023-04-18T02:40:20.362Z,80.89
2023-04-18T02:41:11.157Z,80.99
2023-04-18T02:42:01.998Z,80.89
2023-04-18T02:42:52.722Z,80.89
2023-04-18T02:43:43.510Z,80.79
2023-04-18T02:44:35.245Z,80.79
2023-04-18T02:45:31.144Z,80.79
2023-04-18T02:46:17.373Z,80.79
2023-04-18T02:47:08.296Z,80.79
2023-04-18T02:47:58.653Z,80.79
2023-04-18T02:48:50.238Z,80.89
2023-04-18T02:49:56.251Z,80.89
2023-04-18T02:50:31.250Z,80.99
2023-04-18T02:51:27.780Z,80.89
2023-04-18T02:52:14.256Z,80.99
2023-04-18T02:53:07.255Z,80.99
2023-04-18T02:53:56.250Z,81.09
2023-04-18T02:54:46.454Z,81.09
2023-04-18T02:55:52.776Z,80.99
2023-04-18T02:56:28.353Z,80.99
2023-04-18T02:57:19.134Z,80.99
2023-04-18T02:58:09.926Z,80.99
2023-04-18T02:59:00.760Z,80.99
2023-04-18T02:59:51.534Z,81.13
2023-04-18T03:00:42.319Z,80.99
2023-04-18T03:01:33.246Z,81.03
2023-04-18T03:02:24.069Z,81.09
2023-04-18T03:03:14.873Z,81.23
2023-04-18T03:04:05.603Z,81.09
2023-04-18T03:04:56.527Z,81.09
2023-04-18T03:05:47.335Z,80.99
2023-04-18T03:06:38.101Z,80.99
2023-04-18T03:07:28.871Z,80.89
2023-04-18T03:08:19.711Z,80.79
2023-04-18T03:09:10.439Z,80.82
2023-04-18T03:10:01.222Z,80.82
2023-04-18T03:10:52.004Z,80.82
2023-04-18T03:11:42.745Z,80.93
2023-04-18T03:12:33.478Z,81.03
2023-04-18T03:13:24.711Z,81.03
2023-04-18T03:14:15.578Z,81.03
2023-04-18T03:15:06.374Z,81.03
2023-04-18T03:15:57.215Z,80.93
2023-04-18T03:16:48.479Z,81.03
2023-04-18T03:17:39.164Z,81.13
2023-04-18T03:18:30.249Z,81.13
2023-04-18T03:19:21.515Z,81.03
2023-04-18T03:20:12.635Z,81.03
2023-04-18T03:21:03.677Z,81.03
2023-04-18T03:21:54.493Z,80.93
2023-04-18T03:22:45.698Z,80.93
2023-04-18T03:23:36.376Z,81.03
2023-04-18T03:24:27.597Z,81.03
2023-04-18T03:25:18.272Z,81.03
2023-04-18T03:26:09.057Z,81.03
2023-04-18T03:26:59.808Z,80.93
2023-04-18T03:27:50.536Z,80.93
2023-04-18T03:28:41.304Z,80.93
2023-04-18T03:29:32.064Z,80.93
2023-04-18T03:30:22.845Z,80.86
2023-04-18T03:31:13.653Z,80.96
2023-04-18T03:32:04.384Z,80.96
2023-04-18T03:32:55.160Z,80.96
2023-04-18T03:33:45.897Z,80.96
2023-04-18T03:34:36.656Z,81.07
2023-04-18T03:35:27.448Z,81.17
2023-04-18T03:36:18.210Z,81.17
2023-04-18T03:37:08.971Z,81.17
2023-04-18T03:37:59.733Z,81.27
2023-04-18T03:38:50.516Z,81.37
2023-04-18T03:39:41.172Z,81.27
2023-04-18T03:40:32.066Z,81.27
2023-04-18T03:41:22.938Z,81.27
2023-04-18T03:42:13.778Z,81.17
2023-04-18T03:43:04.648Z,81.27
2023-04-18T03:43:55.741Z,81.27
2023-04-18T03:44:46.637Z,81.37
2023-04-18T03:45:39.257Z,81.37
2023-04-18T03:46:28.404Z,81.37
2023-04-18T03:47:19.620Z,81.48
2023-04-18T03:48:10.423Z,81.58
2023-04-18T03:49:01.148Z,81.58
2023-04-18T03:49:51.835Z,81.48
2023-04-18T03:50:42.694Z,81.37
2023-04-18T03:51:33.404Z,81.37
2023-04-18T03:52:24.257Z,81.48
2023-04-18T03:53:15.117Z,81.48
2023-04-18T03:54:05.993Z,81.48
2023-04-18T03:54:56.879Z,81.48
2023-04-18T03:55:47.748Z,81.37
2023-04-18T03:56:38.625Z,81.27
2023-04-18T03:57:29.818Z,81.27
2023-04-18T03:58:22.620Z,81.27
2023-04-18T03:59:11.557Z,81.27
2023-04-18T04:00:02.415Z,81.17
2023-04-18T04:00:53.289Z,81.17
2023-04-18T04:01:44.198Z,81.17
2023-04-18T04:02:35.305Z,81.17
2023-04-18T04:03:26.264Z,81.17
2023-04-18T04:04:17.583Z,81.17
2023-04-18T04:05:08.220Z,81.27
2023-04-18T04:05:59.108Z,81.17
2023-04-18T04:06:49.976Z,81.27
2023-04-18T04:07:40.850Z,81.17
2023-04-18T04:08:31.733Z,81.17
2023-04-18T04:09:22.616Z,81.07
2023-04-18T04:10:13.526Z,81.17
2023-04-18T04:11:04.385Z,81.17
2023-04-18T04:11:55.287Z,81.17
2023-04-18T04:12:46.174Z,81.17
2023-04-18T04:13:37.077Z,81.17
2023-04-18T04:14:27.990Z,81.17
2023-04-18T04:15:18.886Z,81.17
2023-04-18T04:16:09.758Z,81.17
2023-04-18T04:17:00.598Z,81.17
2023-04-18T04:17:51.583Z,81.27
2023-04-18T04:18:42.424Z,81.37
2023-04-18T04:19:33.304Z,81.37
2023-04-18T04:20:24.202Z,81.37
2023-04-18T04:21:15.085Z,81.48
2023-04-18T04:22:05.975Z,81.48
2023-04-18T04:22:56.843Z,81.48
2023-04-18T04:23:47.708Z,81.48
2023-04-18T04:24:38.654Z,81.48
2023-04-18T04:25:29.488Z,81.48
2023-04-18T04:26:20.379Z,81.48
2023-04-18T04:27:11.247Z,81.48
2023-04-18T04:28:02.149Z,81.48
2023-04-18T04:28:53.038Z,81.48
2023-04-18T04:29:43.926Z,81.37
2023-04-18T04:30:34.819Z,81.27
2023-04-18T04:31:25.741Z,81.27
2023-04-18T04:32:16.586Z,81.17
2023-04-18T04:33:07.469Z,81.07
2023-04-18T04:33:58.356Z,80.96
2023-04-18T04:34:49.269Z,80.86
2023-04-18T04:35:40.121Z,80.86
2023-04-18T04:36:31.007Z,80.86
2023-04-18T04:37:21.965Z,80.86
2023-04-18T04:38:12.794Z,80.96
2023-04-18T04:39:03.678Z,80.96
2023-04-18T04:39:54.572Z,80.96
2023-04-18T04:40:45.464Z,80.96
2023-04-18T04:41:36.359Z,81.07
2023-04-18T04:42:27.251Z,81.07
2023-04-18T04:43:18.149Z,80.96
2023-04-18T04:44:09.030Z,80.96
2023-04-18T04:44:59.972Z,80.96
2023-04-18T04:45:50.904Z,81.00
2023-04-18T04:46:41.789Z,81.00
2023-04-18T04:47:32.700Z,81.10
2023-04-18T04:48:23.617Z,81.10
2023-04-18T04:49:14.497Z,81.10
2023-04-18T04:50:05.387Z,81.10
2023-04-18T04:50:56.316Z,81.10
2023-04-18T04:51:47.198Z,81.10
2023-04-18T04:52:38.126Z,81.10
2023-04-18T04:53:29.006Z,81.10
2023-04-18T04:54:19.897Z,81.21
2023-04-18T04:55:10.802Z,81.21
2023-04-18T04:56:01.722Z,81.21
2023-04-18T04:56:52.575Z,81.21
2023-04-18T04:57:43.473Z,81.21
2023-04-18T04:58:34.388Z,81.21
2023-04-18T04:59:25.251Z,81.21
2023-04-18T05:00:16.153Z,81.21
2023-04-18T05:01:07.069Z,81.21
2023-04-18T05:01:57.976Z,81.31
2023-04-18T05:02:48.994Z,81.41
2023-04-18T05:03:40.230Z,81.41
2023-04-18T05:04:31.291Z,81.41
2023-04-18T05:05:22.229Z,81.51
2023-04-18T05:06:13.120Z,81.48
2023-04-18T05:07:04.060Z,81.48
2023-04-18T05:07:54.969Z,81.48
2023-04-18T05:08:45.870Z,81.37
2023-04-18T05:09:36.783Z,81.37
2023-04-18T05:10:27.686Z,81.27
2023-04-18T05:11:18.614Z,81.27
2023-04-18T05:12:09.502Z,81.27
2023-04-18T05:13:00.448Z,81.27
2023-04-18T05:13:51.356Z,81.27
2023-04-18T05:14:42.264Z,81.27
2023-04-18T05:15:33.213Z,81.27
2023-04-18T05:16:24.097Z,81.17
2023-04-18T05:17:14.984Z,81.17
2023-04-18T05:18:05.920Z,81.17
2023-04-18T05:18:56.806Z,81.03
2023-04-18T05:19:47.703Z,81.17
2023-04-18T05:20:38.637Z,81.17
2023-04-18T05:21:29.562Z,81.27
2023-04-18T05:22:20.444Z,81.37
2023-04-18T05:23:11.374Z,81.37
2023-04-18T05:24:02.262Z,81.48
2023-04-18T05:24:53.163Z,81.48
2023-04-18T05:25:44.130Z,81.54
2023-04-18T05:26:35.019Z,81.54
2023-04-18T05:27:25.927Z,81.44
2023-04-18T05:28:16.846Z,81.34
2023-04-18T05:29:07.753Z,81.34
2023-04-18T05:29:58.672Z,81.34
2023-04-18T05:30:49.596Z,81.23
2023-04-18T05:31:40.485Z,81.23
2023-04-18T05:32:31.413Z,81.23
2023-04-18T05:33:22.315Z,81.09
2023-04-18T05:34:13.415Z,80.89
2023-04-18T05:35:03.906Z,80.79
2023-04-18T05:35:54.831Z,80.68
2023-04-18T05:36:45.727Z,80.58
2023-04-18T05:37:36.629Z,80.44
2023-04-18T05:38:27.554Z,80.33
2023-04-18T05:39:18.443Z,80.23
2023-04-18T05:40:09.377Z,80.13
2023-04-18T05:41:00.358Z,80.13
2023-04-18T05:41:51.244Z,80.02
2023-04-18T05:42:42.152Z,80.13
2023-04-18T05:43:33.132Z,80.13
2023-04-18T05:44:24.048Z,80.13
2023-04-18T05:45:14.954Z,79.93
2023-04-18T05:46:05.936Z,79.93
2023-04-18T05:46:57.806Z,80.02
2023-04-18T05:47:47.535Z,80.23
2023-04-18T05:48:38.445Z,80.44
2023-04-18T05:49:29.354Z,80.54
2023-04-18T05:50:20.294Z,80.54
2023-04-18T05:51:11.752Z,80.54
2023-04-18T05:52:02.111Z,80.71
2023-04-18T05:52:53.023Z,80.71
2023-04-18T05:53:43.952Z,80.71
2023-04-18T05:54:34.830Z,80.61
2023-04-18T05:55:25.823Z,80.51
2023-04-18T05:56:16.680Z,80.40
2023-04-18T05:57:07.584Z,80.26
2023-04-18T05:57:58.492Z,80.16
2023-04-18T05:58:49.404Z,80.16
2023-04-18T05:59:40.310Z,80.05
2023-04-18T06:00:31.244Z,80.16
2023-04-18T06:01:22.150Z,80.26
2023-04-18T06:02:13.427Z,80.36
2023-04-18T06:03:04.147Z,80.47
2023-04-18T06:03:54.766Z,80.36
2023-04-18T06:04:45.844Z,80.43
2023-04-18T06:05:36.969Z,80.63
2023-04-18T06:06:27.937Z,80.74
2023-04-18T06:07:18.832Z,80.63
2023-04-18T06:08:09.766Z,80.43
2023-04-18T06:09:36.314Z,80.33
2023-04-18T06:09:51.504Z,80.12
2023-04-18T06:10:44.283Z,80.02
2023-04-18T06:11:34.312Z,79.81
2023-04-18T06:12:24.004Z,79.71
2023-04-18T06:13:14.946Z,79.71
2023-04-18T06:14:05.855Z,79.71
2023-04-18T06:14:56.864Z,79.71
2023-04-18T06:15:49.322Z,79.57
2023-04-18T06:16:38.452Z,79.47
2023-04-18T06:17:32.794Z,79.47
2023-04-18T06:18:20.824Z,79.67
2023-04-18T06:19:11.295Z,79.77
2023-04-18T06:20:01.320Z,79.88
2023-04-18T06:20:54.281Z,79.98
2023-04-18T06:21:43.389Z,79.88
2023-04-18T06:22:35.265Z,79.98
2023-04-18T06:23:24.972Z,79.98
2023-04-18T06:24:16.926Z,80.08
2023-04-18T06:25:44.413Z,80.19
2023-04-18T06:26:04.304Z,79.98
2023-04-18T06:30:49.748Z,79.22
2023-04-18T06:31:32.164Z,79.12
2023-04-18T06:32:23.101Z,79.12
2023-04-18T06:34:53.143Z,79.19
2023-04-18T06:35:44.119Z,79.29
2023-04-18T06:36:35.012Z,79.19
2023-04-18T06:37:27.726Z,79.19
2023-04-18T06:38:17.043Z,79.39
2023-04-18T06:39:08.073Z,79.60
2023-04-18T06:39:58.997Z,79.66
2023-04-18T06:40:49.917Z,79.66
2023-04-18T06:41:40.814Z,79.46
2023-04-18T06:42:31.749Z,79.46
2023-04-18T06:43:22.642Z,79.46
2023-04-18T06:44:13.556Z,79.56
2023-04-18T06:45:04.474Z,79.46
2023-04-18T06:45:55.424Z,79.32
2023-04-18T06:46:46.295Z,79.22
2023-04-18T06:47:37.225Z,79.22
2023-04-18T06:48:28.105Z,79.32
2023-04-18T06:49:19.724Z,79.22
2023-04-18T06:50:09.726Z,79.08
2023-04-18T06:51:00.633Z,78.77
2023-04-18T06:51:51.548Z,78.36
2023-04-18T06:52:42.469Z,78.05
2023-04-18T06:53:33.359Z,77.84
2023-04-18T06:54:24.266Z,77.64
2023-04-18T06:55:15.222Z,77.64
2023-04-18T06:56:06.092Z,77.64
2023-04-18T06:56:56.981Z,77.44
2023-04-18T06:57:47.881Z,77.29
2023-04-18T06:58:38.796Z,76.99
2023-04-18T06:59:29.728Z,76.89
2023-04-18T07:00:20.646Z,76.58
2023-04-18T07:01:11.620Z,76.48
2023-04-18T07:02:02.537Z,76.37
2023-04-18T07:02:53.527Z,76.27
2023-04-18T07:03:44.634Z,76.07
2023-04-18T07:04:35.657Z,76.03
2023-04-18T07:05:26.541Z,76.14
2023-04-18T07:06:17.432Z,76.03
2023-04-18T07:07:08.340Z,75.82
2023-04-18T07:07:59.265Z,75.62
2023-04-18T07:08:50.693Z,75.52
2023-04-18T07:09:41.364Z,75.31
2023-04-18T07:10:32.282Z,75.21
2023-04-18T07:11:23.262Z,75.11
2023-04-18T07:12:14.100Z,75.21
2023-04-18T07:13:05.034Z,75.07
2023-04-18T07:13:55.928Z,74.77
2023-04-18T07:14:46.818Z,74.56
2023-04-18T07:15:37.752Z,74.46
2023-04-18T07:16:28.681Z,74.36
2023-04-18T07:17:19.622Z,74.26
2023-04-18T07:18:10.543Z,74.26
2023-04-18T07:19:01.479Z,74.05
2023-04-18T07:19:52.352Z,74.05
2023-04-18T07:20:43.293Z,73.95
2023-04-18T07:21:34.213Z,73.85
2023-04-18T07:22:25.136Z,73.61
2023-04-18T07:23:16.069Z,73.40
2023-04-18T07:24:06.996Z,73.30
2023-04-18T07:24:57.926Z,73.30
2023-04-18T07:25:48.860Z,73.20
2023-04-18T07:26:39.963Z,73.10
2023-04-18T07:27:30.806Z,72.86
2023-04-18T07:28:21.737Z,72.75
2023-04-18T07:29:12.659Z,72.86
2023-04-18T07:30:03.585Z,72.75
2023-04-18T07:30:54.555Z,72.55
2023-04-18T07:31:45.446Z,72.24
2023-04-18T07:32:36.407Z,71.94
2023-04-18T07:33:27.310Z,71.73
2023-04-18T07:34:18.240Z,71.62
2023-04-18T07:35:08.984Z,71.53
2023-04-18T07:35:59.911Z,71.53
2023-04-18T07:36:50.835Z,71.73
2023-04-18T07:37:41.782Z,71.94
2023-04-18T07:38:32.697Z,71.80
2023-04-18T07:39:23.613Z,71.90
2023-04-18T07:40:14.554Z,72.11
2023-04-18T07:41:05.446Z,72.21
2023-04-18T07:41:56.429Z,72.31
2023-04-18T07:42:47.354Z,72.31
2023-04-18T07:43:38.249Z,72.21
2023-04-18T07:44:29.173Z,71.77
2023-04-18T07:45:20.084Z,71.36
2023-04-18T07:46:11.065Z,71.25
2023-04-18T07:47:01.946Z,70.95
2023-04-18T07:47:52.882Z,70.75
2023-04-18T07:48:43.813Z,70.54
2023-04-18T07:49:34.712Z,70.43
2023-04-18T07:50:25.624Z,70.54
2023-04-18T07:51:16.528Z,70.64
2023-04-18T07:52:07.441Z,70.95
2023-04-18T07:52:58.369Z,71.05
2023-04-18T07:53:49.290Z,70.95
2023-04-18T07:54:40.201Z,70.75
2023-04-18T07:55:31.113Z,70.64
2023-04-18T07:56:22.046Z,70.64
2023-04-18T07:57:12.989Z,70.54
2023-04-18T07:58:03.883Z,70.54
2023-04-18T07:58:54.829Z,70.75
2023-04-18T07:59:45.748Z,70.81
2023-04-18T08:00:36.681Z,70.92
2023-04-18T08:01:27.609Z,70.92
2023-04-18T08:02:18.587Z,70.81
2023-04-18T08:03:09.678Z,70.81
2023-04-18T08:04:00.247Z,70.71
2023-04-18T08:04:51.424Z,70.30
2023-04-18T08:05:42.530Z,70.06
2023-04-18T08:06:33.428Z,69.96
2023-04-18T08:07:24.372Z,69.86
2023-04-18T08:08:15.291Z,69.76
2023-04-18T08:09:06.224Z,69.76
2023-04-18T08:09:57.157Z,69.65
2023-04-18T08:10:48.085Z,69.65
2023-04-18T08:11:39.025Z,69.76
2023-04-18T08:12:29.967Z,69.86
2023-04-18T08:13:20.868Z,69.86
2023-04-18T08:14:11.782Z,69.86
2023-04-18T08:15:02.727Z,69.86
2023-04-18T08:16:43.904Z,69.76
2023-04-18T08:16:47.783Z,69.79
2023-04-18T08:19:16.950Z,69.79
2023-04-18T08:20:07.860Z,69.89
2023-04-18T08:20:58.795Z,70.00
2023-04-18T08:21:49.713Z,70.20
2023-04-18T08:22:53.865Z,70.30
2023-04-18T08:23:32.571Z,70.40
2023-04-18T08:24:22.311Z,70.71
2023-04-18T08:25:13.231Z,71.12
2023-04-18T08:26:04.163Z,71.09
2023-04-18T08:26:55.086Z,71.09
2023-04-18T08:27:46.030Z,70.78
2023-04-18T08:28:36.940Z,70.57
2023-04-18T08:29:42.880Z,70.37
2023-04-18T08:30:18.611Z,70.37
2023-04-18T08:31:09.562Z,70.57
2023-04-18T08:32:00.577Z,70.47
2023-04-18T08:32:51.675Z,70.47
2023-04-18T08:33:42.637Z,70.17
2023-04-18T08:34:33.538Z,69.96
2023-04-18T08:35:51.527Z,69.86
2023-04-18T08:36:21.957Z,69.86
2023-04-18T08:38:45.820Z,69.76
2023-04-18T08:39:36.720Z,69.76
2023-04-18T08:40:27.644Z,69.86
2023-04-18T08:41:21.285Z,69.86
2023-04-18T08:43:29.810Z,69.65
2023-04-18T08:44:20.033Z,69.65
2023-04-18T08:45:10.947Z,69.79
2023-04-18T08:46:02.083Z,69.96
2023-04-18T08:46:53.031Z,70.06
2023-04-18T08:47:45.022Z,70.17
2023-04-18T08:48:34.716Z,70.27
2023-04-18T08:49:25.662Z,70.14
2023-04-18T08:50:16.618Z,69.73
2023-04-18T08:51:07.535Z,69.18
2023-04-18T08:51:58.478Z,68.98
2023-04-18T08:52:49.446Z,69.08
2023-04-18T08:53:40.326Z,69.18
2023-04-18T08:54:31.254Z,69.08
2023-04-18T08:55:22.180Z,68.98
2023-04-18T08:56:13.084Z,68.88
2023-04-18T08:57:04.030Z,68.98
2023-04-18T08:57:54.948Z,68.88
2023-04-18T08:58:46.083Z,68.98
2023-04-18T08:59:36.974Z,68.88
2023-04-18T09:00:27.888Z,68.64
2023-04-18T09:01:18.885Z,68.64
2023-04-18T09:02:09.784Z,68.74
2023-04-18T09:03:00.805Z,68.74
2023-04-18T09:03:51.925Z,68.51
2023-04-18T09:04:42.814Z,68.40
2023-04-18T09:05:33.759Z,68.40
2023-04-18T09:06:25.531Z,68.30
2023-04-18T09:07:15.705Z,68.20
2023-04-18T09:08:06.661Z,68.27
2023-04-18T09:08:57.688Z,68.07
2023-04-18T09:09:49.646Z,67.66
2023-04-18T09:10:39.343Z,67.46
2023-04-18T09:11:30.214Z,67.38
2023-04-18T09:12:21.137Z,67.08
2023-04-18T09:13:12.028Z,66.88
2023-04-18T09:14:03.103Z,66.88
2023-04-18T09:14:53.960Z,66.67
2023-04-18T09:15:44.904Z,66.67
2023-04-18T09:16:35.840Z,66.67
2023-04-18T09:17:26.787Z,66.67
2023-04-18T09:18:17.694Z,66.57
2023-04-18T09:19:08.641Z,66.47
2023-04-18T09:19:59.579Z,66.67
2023-04-18T09:20:50.527Z,66.64
2023-04-18T09:21:41.485Z,66.44
2023-04-18T09:22:32.424Z,66.13
2023-04-18T09:23:23.384Z,65.92
2023-04-18T09:24:14.558Z,65.92
2023-04-18T09:25:04.966Z,66.33
2023-04-18T09:25:55.866Z,66.88
2023-04-18T09:26:46.770Z,67.18
2023-04-18T09:27:37.698Z,67.38
2023-04-18T09:28:28.656Z,67.38
2023-04-18T09:29:19.729Z,67.59
2023-04-18T09:30:10.629Z,67.79
2023-04-18T09:31:01.668Z,67.79
2023-04-18T09:31:52.685Z,67.41
2023-04-18T09:32:43.634Z,67.21
2023-04-18T09:33:34.544Z,67.41
2023-04-18T09:34:25.431Z,67.82
2023-04-18T09:35:16.314Z,67.93
2023-04-18T09:36:07.228Z,67.93
2023-04-18T09:36:58.194Z,67.93
2023-04-18T09:37:49.101Z,68.13
2023-04-18T09:38:40.015Z,67.93
2023-04-18T09:39:30.960Z,68.03
2023-04-18T09:40:21.856Z,68.13
2023-04-18T09:41:12.789Z,68.20
2023-04-18T09:42:03.756Z,68.10
2023-04-18T09:42:54.640Z,67.99
2023-04-18T09:43:45.564Z,67.69
2023-04-18T09:44:36.600Z,67.59
2023-04-18T09:45:27.455Z,67.38
2023-04-18T09:46:18.390Z,67.18
2023-04-18T09:47:09.295Z,67.29
2023-04-18T09:48:00.244Z,67.29
2023-04-18T09:48:51.122Z,67.52
2023-04-18T09:49:42.021Z,67.93
2023-04-18T09:50:32.943Z,68.33
2023-04-18T09:51:23.849Z,68.54
2023-04-18T09:52:14.766Z,68.64
2023-04-18T09:53:05.672Z,68.54
2023-04-18T09:53:56.578Z,68.54
2023-04-18T09:54:48.285Z,68.33
2023-04-18T09:55:38.564Z,68.23
2023-04-18T09:56:29.482Z,68.54
2023-04-18T09:57:20.382Z,68.84
2023-04-18T09:58:11.303Z,68.84
2023-04-18T09:59:02.213Z,69.05
2023-04-18T09:59:53.128Z,69.35
2023-04-18T10:00:46.378Z,69.18
2023-04-18T10:01:34.802Z,68.77
2023-04-18T10:02:25.741Z,68.77
2023-04-18T10:03:16.782Z,68.67
2023-04-18T10:04:07.862Z,68.47
2023-04-18T10:04:58.954Z,68.37
2023-04-18T10:05:49.841Z,68.37
2023-04-18T10:06:40.697Z,68.40
2023-04-18T10:07:31.612Z,68.50
2023-04-18T10:08:22.534Z,68.80
2023-04-18T10:09:13.624Z,69.11
2023-04-18T10:10:04.633Z,69.21
2023-04-18T10:10:55.559Z,69.73
2023-04-18T10:11:46.471Z,69.93
2023-04-18T10:12:37.381Z,69.82
2023-04-18T10:13:28.304Z,69.76
2023-04-18T10:14:19.212Z,69.86
2023-04-18T10:15:10.360Z,69.76
2023-04-18T10:16:01.255Z,69.76
2023-04-18T10:16:52.140Z,69.96
2023-04-18T10:17:56.043Z,69.96
2023-04-18T10:18:34.962Z,70.06
2023-04-18T10:19:24.707Z,70.17
2023-04-18T10:20:15.589Z,70.10
2023-04-18T10:21:06.545Z,70.10
2023-04-18T10:21:57.470Z,70.20
2023-04-18T10:22:48.373Z,70.30
2023-04-18T10:23:39.336Z,70.20
2023-04-18T10:24:30.222Z,70.30
2023-04-18T10:25:21.164Z,70.30
2023-04-18T10:26:12.066Z,70.40
2023-04-18T10:27:02.965Z,70.51
2023-04-18T10:27:53.868Z,70.54
2023-04-18T10:28:45.585Z,70.51
2023-04-18T10:29:35.579Z,70.64
2023-04-18T10:30:26.522Z,70.92
2023-04-18T10:31:17.439Z,71.22
2023-04-18T10:32:08.367Z,71.53
2023-04-18T10:32:59.308Z,71.63
2023-04-18T10:34:03.191Z,71.63
2023-04-18T10:34:42.097Z,71.70
2023-04-18T10:35:31.806Z,71.80
2023-04-18T10:36:22.739Z,71.91
2023-04-18T10:37:13.669Z,72.21
2023-04-18T10:38:04.565Z,72.00
2023-04-18T10:38:55.546Z,71.70
2023-04-18T10:39:47.381Z,71.67
2023-04-18T10:40:37.088Z,71.46
2023-04-18T10:41:28.026Z,71.15
2023-04-18T10:42:18.934Z,70.85
2023-04-18T10:43:09.853Z,70.75
2023-04-18T10:44:00.761Z,70.54
2023-04-18T10:44:51.668Z,70.23
2023-04-18T10:45:42.867Z,70.23
2023-04-18T10:46:33.703Z,70.23
2023-04-18T10:47:24.709Z,70.14
2023-04-18T10:48:15.762Z,70.00
2023-04-18T10:49:06.675Z,69.90
2023-04-18T10:49:57.587Z,69.79
2023-04-18T10:50:48.517Z,69.90
2023-04-18T10:51:39.419Z,69.90
2023-04-18T10:52:30.398Z,70.00
2023-04-18T10:53:21.275Z,70.00
2023-04-18T10:54:12.414Z,70.00
2023-04-18T10:55:02.821Z,69.90
2023-04-18T10:55:53.750Z,70.00
2023-04-18T10:56:44.656Z,69.90
2023-04-18T10:57:35.582Z,69.90
2023-04-18T10:58:27.497Z,69.76
2023-04-18T10:59:17.216Z,69.76
2023-04-18T11:00:08.112Z,69.66
2023-04-18T11:00:59.256Z,69.66
2023-04-18T11:01:50.169Z,69.46
2023-04-18T11:02:41.241Z,69.25
2023-04-18T11:03:32.055Z,69.25
2023-04-18T11:04:23.050Z,69.46
2023-04-18T11:05:13.916Z,69.32